EHLEEBBR

Guest
Details From EHLE - Lelystad
To EBBR - Brussels Airport
Flight Number -
Tags Routegen
Created
Modified
Stats Distance 101 nm / 187 km
Max Altitude 0 ft / 0 m
Waypoints 2
Social Downloads 4
Likes 0
Share

Download

Looking for another format? Having issues loading an existing format? Contact us
Advertisement - Login to hide

Notes

None

Route

EHLE EBBR

ID Type Via Altitude (ft/m) Position (lat/lon) Dist (leg/tot) Name
O EHLE APT - 0 / 0 52.45115 / 5.51102 - / 0 nm
O EBBR APT - 0 / 0 50.89887 / 4.45564 101 / 101 nm

Altitude Profile

Advertisement - Login to hide

EHLE

Details ICAO EHLE (LEY)
Name Lelystad Airport
Region Netherlands
Timezone Europe/Amsterdam (UTC+2.0)
Stats Elevation -39 ft / -12 m (AMSL)
Location 52.459400° 5.519870°
Runways 2
Magnetic Variation 1.921° E

METAR

EHLE 271325Z AUTO 22013KT 180V240 9999 OVC023 15/11 Q1020 NOSIG

Decode

TAF

TAF EHLE 271120Z 2712/2818 22014KT 9999 SCT025 BECMG 2716/2719 18008KT PROB30 TEMPO 2803/2807 6000 BECMG 2808/2811 17013KT CAVOK

Decode

Departure Runways

ID Width Length Bearing (true/mag) Surface Threshold Overrun Markings Lighting
05 98 ft / 30 m 4,095 ft / 1,248 m 47.51° / 45.59° ASPHALT 0 ft / 0 m 184 ft / 56 m PREC-APP EDGE THRESHOLD
05L 164 ft / 50 m 1,412 ft / 430 m 48.00° / 46.08° GRASS 0 ft / 0 m 0 ft / 0 m NONE
23 98 ft / 30 m 4,095 ft / 1,248 m 227.52° / 225.60° ASPHALT 0 ft / 0 m 0 ft / 0 m VISUAL EDGE THRESHOLD SALS
23R 164 ft / 50 m 1,412 ft / 430 m 228.00° / 226.08° GRASS 0 ft / 0 m 0 ft / 0 m NONE

EBBR

Details ICAO EBBR (BRU)
Name Brussels
Region Belgium
Timezone Europe/Brussels (UTC+2.0)
Stats Elevation 184 ft / 56 m (AMSL)
Location 50.899900° 4.492770°
Runways 3
Magnetic Variation 1.655° E

METAR

EBBR 271320Z 22011KT 9999 FEW028 16/10 Q1023 NOSIG

Decode

TAF

TAF EBBR 271110Z 2712/2818 20009KT 9999 FEW020= TAF KMUO 271130Z 2711/2816 VRB06KT 9999 VCSH BKN080 610804 QNH3009INS TEMPO 2711/2715 -SHRA BKN030 OVC070 640804 BECMG 2716/2717 31012G18KT 9999 NSW FEW040 SCT120 QNH3016INS TEMPO 2718/2723 32015G25KT SCT030 BKN100 510009 BECMG 2801/2802 VRB06KT 9999 BKN050 BKN080 650804 QNH3031INS TX13/2722Z TN04/2810Z

Decode

Destination Runways

ID Width Length Bearing (true/mag) Surface Threshold Overrun Markings Lighting
01 164 ft / 50 m 9,810 ft / 2,990 m 14.44° / 12.79° ASPHALT 157 ft / 48 m 0 ft / 0 m PREC-APP CENTERLINE EDGE THRESHOLD ALSF-II TDZ REIL-OMNI
07L 148 ft / 45 m 11,917 ft / 3,632 m 65.37° / 63.72° ASPHALT 843 ft / 257 m 72 ft / 22 m PREC-APP CENTERLINE EDGE THRESHOLD TDZ REIL-OMNI
07R 148 ft / 45 m 10,522 ft / 3,207 m 69.88° / 68.22° ASPHALT 407 ft / 124 m 0 ft / 0 m PREC-APP CENTERLINE EDGE THRESHOLD REIL-OMNI
19 164 ft / 50 m 9,810 ft / 2,990 m 194.45° / 192.79° ASPHALT 722 ft / 220 m 43 ft / 13 m PREC-APP CENTERLINE EDGE THRESHOLD ALSF-I TDZ REIL-OMNI
25L 148 ft / 45 m 10,522 ft / 3,207 m 249.91° / 248.25° ASPHALT 0 ft / 0 m 13 ft / 4 m PREC-APP CENTERLINE EDGE THRESHOLD ALSF-II TDZ REIL-OMNI
25R 148 ft / 45 m 11,917 ft / 3,632 m 245.41° / 243.76° ASPHALT 981 ft / 299 m 0 ft / 0 m PREC-APP CENTERLINE EDGE THRESHOLD ALSF-II TDZ REIL-OMNI

Approach Navaids

Runway Type Ident Frequency Range Bearing (true/mag) Slope Elevation
01 LOC-ILS IBX 109.90 MHz 18 nm / 33 km 14.45° / 12.80 ° - 184 ft / 56 m (AMSL)
01 GS IBX 109.90 MHz 10 nm / 19 km 14.45° / 12.80 ° 3.00° 184 ft / 56 m (AMSL)
01 OM OM - - 14.41° / 12.76 ° - 184 ft / 56 m (AMSL)
01 DME IBX 109.90 MHz 18 nm / 33 km - - 184 ft / 56 m (AMSL)
01 MM MM - - 14.41° / 12.76 ° - 184 ft / 56 m (AMSL)
19 LOC-ILS IBM 111.15 MHz 18 nm / 33 km 194.45° / 192.80 ° - 184 ft / 56 m (AMSL)
19 DME IBM 111.15 MHz 18 nm / 33 km - - 184 ft / 56 m (AMSL)
19 GS IBM 111.15 MHz 10 nm / 19 km 194.45° / 192.80 ° 3.00° 184 ft / 56 m (AMSL)
25L OM OM - - 249.91° / 248.26 ° - 184 ft / 56 m (AMSL)
25L LOC-ILS IBL 110.35 MHz 18 nm / 33 km 249.89° / 248.24 ° - 184 ft / 56 m (AMSL)
25L MM MM - - 249.91° / 248.26 ° - 184 ft / 56 m (AMSL)
25L GS IBL 110.35 MHz 10 nm / 19 km 249.89° / 248.24 ° 3.00° 184 ft / 56 m (AMSL)
25R DME IBR 108.90 MHz 18 nm / 33 km - - 184 ft / 56 m (AMSL)
25R LOC-ILS IBR 108.90 MHz 18 nm / 33 km 245.39° / 243.74 ° - 184 ft / 56 m (AMSL)
25R GS IBR 108.90 MHz 10 nm / 19 km 245.39° / 243.74 ° 3.00° 184 ft / 56 m (AMSL)
25R MM MM - - 245.18° / 243.53 ° - 184 ft / 56 m (AMSL)

Popular Alternatives